Time;durP1;ratioP1;P1;durP2;ratioP2;P2;SDS_P1;SDS_P2;PMS_P1;PMS_P2;Temp;Humidity;BMP_temperature;BMP_pressure;BME280_temperature;BME280_humidity;BME280_pressure;Samples;Min_cycle;Max_cycle;Signal;HPM_P1;HPM_P2
2023/12/10 00:01:26;;;;;;;;;32.00;28.25;;;;;5.21;71.82;101286.84;146616;569;46016;-69
2023/12/10 00:04:21;;;;;;;;;29.00;27.25;;;;;5.23;72.25;101278.47;146621;573;46021;-68
2023/12/10 00:07:17;;;;;;;;;27.75;25.75;;;;;5.28;72.64;101284.87;146618;570;46016;-67
2023/12/10 00:10:14;;;;;;;;;24.75;22.75;;;;;5.35;72.76;101280.22;146620;600;45020;-67
2023/12/10 00:13:12;;;;;;;;;17.50;17.50;;;;;5.41;72.91;101280.72;146614;573;47016;-67
2023/12/10 00:16:11;;;;;;;;;18.25;17.25;;;;;5.49;72.95;101275.44;146621;611;47010;-67
2023/12/10 00:19:06;;;;;;;;;21.50;19.50;;;;;5.59;72.71;101271.03;146614;579;46916;-68
2023/12/10 00:22:02;;;;;;;;;25.25;19.75;;;;;3.90;72.73;100960.34;146634;566;46010;-70
2023/12/10 00:25:15;;;;;;;;;24.25;23.25;;;;;5.79;72.57;101273.47;146632;596;47012;-68
2023/12/10 00:28:13;;;;;;;;;26.75;25.50;;;;;5.84;72.57;101277.31;146636;652;46020;-64
2023/12/10 00:31:24;;;;;;;;;37.25;32.00;;;;;1.72;70.95;100551.44;146634;586;45014;-64
2023/12/10 00:34:20;;;;;;;;;44.50;34.00;;;;;5.79;71.49;101270.91;146633;588;45020;-64
2023/12/10 00:37:13;;;;;;;;;47.00;38.00;;;;;5.75;72.05;101266.31;146634;627;45016;-65
2023/12/10 00:40:21;;;;;;;;;51.75;40.00;;;;;5.71;72.07;101264.28;146628;617;46918;-65
2023/12/10 00:43:14;;;;;;;;;49.50;39.75;;;;;5.65;71.70;101269.81;146636;610;45017;-66
2023/12/10 00:46:28;;;;;;;;;55.25;42.75;;;;;5.61;71.81;101272.94;146629;604;46020;-66
2023/12/10 00:49:22;;;;;;;;;46.75;38.00;;;;;5.60;71.68;101273.69;146636;576;45016;-65
2023/12/10 00:52:17;;;;;;;;;42.25;34.50;;;;;5.57;72.11;101270.87;146636;605;45010;-64
2023/12/10 00:55:15;;;;;;;;;43.75;37.25;;;;;5.48;71.57;101267.56;146630;598;45012;-64
2023/12/10 00:58:11;;;;;;;;;43.25;34.00;;;;;5.49;72.27;101272.84;146636;577;46014;-64
2023/12/10 01:01:27;;;;;;;;;37.00;32.75;;;;;5.42;72.33;101255.16;146630;580;45016;-65
2023/12/10 01:04:30;;;;;;;;;39.75;33.00;;;;;5.35;72.13;101250.25;146635;755;45010;-65
2023/12/10 01:07:25;;;;;;;;;47.25;38.75;;;;;5.29;72.47;101258.38;146635;566;45013;-66
2023/12/10 01:10:30;;;;;;;;;47.75;39.50;;;;;5.25;72.10;101264.06;146632;563;47010;-66
2023/12/10 01:13:25;;;;;;;;;43.75;35.00;;;;;5.19;72.03;101252.38;146635;574;46012;-66
2023/12/10 01:16:41;;;;;;;;;38.50;33.25;;;;;5.16;71.72;101249.56;146633;627;46010;-66
2023/12/10 01:19:39;;;;;;;;;39.00;33.75;;;;;5.09;72.46;101254.22;146632;631;45913;-65
2023/12/10 01:22:31;;;;;;;;;39.50;34.00;;;;;5.08;72.85;101254.09;146620;594;46021;-65
2023/12/10 01:25:33;;;;;;;;;50.25;37.00;;;;;5.07;72.95;101253.16;146618;615;46012;-66
2023/12/10 01:28:44;;;;;;;;;41.25;36.50;;;;;5.04;72.39;101259.75;146619;589;46011;-65
2023/12/10 01:31:40;;;;;;;;;36.50;32.75;;;;;4.94;73.18;101252.94;146620;571;46016;-65
2023/12/10 01:34:31;;;;;;;;;39.00;32.00;;;;;4.99;73.10;101274.78;146619;706;47010;-66
2023/12/10 01:37:36;;;;;;;;;34.75;27.50;;;;;4.97;72.67;101276.34;146621;630;46014;-65
2023/12/10 01:40:34;;;;;;;;;30.50;28.50;;;;;4.94;73.12;101276.09;146622;690;45020;-64
2023/12/10 01:43:35;;;;;;;;;32.00;25.25;;;;;4.90;73.43;101263.75;146616;622;45029;-65
2023/12/10 01:46:30;;;;;;;;;31.00;27.50;;;;;4.88;73.42;101260.16;146615;597;47020;-65
2023/12/10 01:49:28;;;;;;;;;30.00;25.75;;;;;4.86;73.17;101257.47;146617;568;46016;-63
2023/12/10 01:52:55;;;;;;;;;35.50;31.00;;;;;4.94;73.49;101252.94;146616;576;47010;-64
2023/12/10 01:56:09;;;;;;;;;31.00;28.00;;;;;5.02;73.10;101261.31;146618;580;46016;-63
2023/12/10 01:59:15;;;;;;;;;27.50;27.25;;;;;5.06;73.15;101259.09;146620;567;47010;-63
2023/12/10 02:02:16;;;;;;;;;29.25;23.75;;;;;5.11;72.99;101267.19;146617;796;46016;-64
2023/12/10 02:05:25;;;;;;;;;29.75;23.75;;;;;0.90;71.78;100530.88;146621;626;46010;-65
2023/12/10 02:08:23;;;;;;;;;29.75;24.25;;;;;5.03;72.76;101269.12;146617;616;46016;-64
2023/12/10 02:11:16;;;;;;;;;33.50;28.50;;;;;4.98;72.56;101269.50;146620;622;46020;-64
2023/12/10 02:14:21;;;;;;;;;23.00;20.50;;;;;4.94;72.94;101272.62;146616;616;47014;-64
2023/12/10 02:17:13;;;;;;;;;25.75;22.25;;;;;4.92;72.66;101263.87;146618;622;47010;-64
2023/12/10 02:20:13;;;;;;;;;24.50;20.50;;;;;4.91;72.56;101265.56;146618;573;46015;-62
2023/12/10 02:23:50;;;;;;;;;26.75;24.50;;;;;0.93;71.62;100566.88;146620;592;46010;-63
2023/12/10 02:26:51;;;;;;;;;22.75;18.75;;;;;4.91;72.51;101268.13;146617;593;46016;-63
2023/12/10 02:29:49;;;;;;;;;20.00;17.25;;;;;4.89;72.25;101261.97;146617;574;46020;-65
2023/12/10 02:32:46;;;;;;;;;21.50;19.00;;;;;4.87;72.26;101255.81;146620;610;46012;-63
2023/12/10 02:35:39;;;;;;;;;27.75;23.00;;;;;4.84;73.10;101251.31;146616;698;47011;-65
2023/12/10 02:38:48;;;;;;;;;28.25;25.50;;;;;4.74;73.15;101242.72;146616;575;47012;-64
2023/12/10 02:41:52;;;;;;;;;29.50;26.75;;;;;4.63;72.78;101236.69;146621;579;46014;-64
2023/12/10 02:44:49;;;;;;;;;25.00;23.25;;;;;4.59;73.42;101234.63;146620;570;46014;-63
2023/12/10 02:47:47;;;;;;;;;30.00;26.25;;;;;4.57;73.31;101231.94;146617;586;46020;-62
2023/12/10 02:50:47;;;;;;;;;32.00;30.25;;;;;4.56;73.99;101242.97;146617;614;46017;-62
2023/12/10 02:53:55;;;;;;;;;27.25;24.75;;;;;0.98;72.89;100600.47;146621;585;46020;-64
2023/12/10 02:56:50;;;;;;;;;27.50;22.75;;;;;4.70;73.78;101238.97;146617;619;46016;-64
2023/12/10 02:59:41;;;;;;;;;26.00;23.75;;;;;4.75;73.96;101240.25;146617;593;46010;-65
2023/12/10 03:02:34;;;;;;;;;25.50;21.25;;;;;4.76;73.29;101236.03;146619;573;46016;-65
2023/12/10 03:05:39;;;;;;;;;28.00;24.00;;;;;0.52;72.92;100504.59;146621;808;46010;-63
2023/12/10 03:08:42;;;;;;;;;28.00;21.75;;;;;4.66;73.70;101251.47;146613;596;46016;-63
2023/12/10 03:11:40;;;;;;;;;26.25;23.50;;;;;4.62;73.77;101240.94;146620;599;46010;-62
2023/12/10 03:14:35;;;;;;;;;25.25;22.00;;;;;4.62;74.34;101240.94;146617;632;46012;-62
2023/12/10 03:17:33;;;;;;;;;25.25;22.50;;;;;4.60;75.08;101244.13;146619;624;46020;-62
2023/12/10 03:20:32;;;;;;;;;25.75;24.00;;;;;4.58;75.26;101243.13;146618;571;46017;-64
2023/12/10 03:23:27;;;;;;;;;29.50;23.75;;;;;4.54;75.11;101241.06;146621;602;46020;-64
2023/12/10 03:26:20;;;;;;;;;26.75;24.00;;;;;4.52;74.71;101237.47;146620;674;46012;-64
2023/12/10 03:29:16;;;;;;;;;30.25;27.00;;;;;4.54;75.53;101241.94;146618;622;46020;-65
2023/12/10 03:32:26;;;;;;;;;29.50;24.50;;;;;4.58;75.06;101245.69;146619;573;45016;-64
2023/12/10 03:35:27;;;;;;;;;31.00;27.50;;;;;4.57;75.64;101243.87;146617;599;47010;-64
2023/12/10 03:38:31;;;;;;;;;33.75;27.00;;;;;4.50;74.71;101237.34;146615;611;47016;-64
2023/12/10 03:41:26;;;;;;;;;36.75;29.50;;;;;4.48;76.16;101243.09;146616;570;47010;-63
2023/12/10 03:44:23;;;;;;;;;32.25;26.25;;;;;4.44;75.91;101239.38;146619;595;46012;-64
2023/12/10 03:47:24;;;;;;;;;25.75;22.25;;;;;4.46;75.62;101235.28;146619;580;46023;-64
2023/12/10 03:50:22;;;;;;;;;24.25;22.25;;;;;4.47;75.13;101237.06;146618;628;46012;-64
2023/12/10 03:53:18;;;;;;;;;23.00;20.00;;;;;4.48;75.23;101245.69;146617;594;46020;-64
2023/12/10 03:56:25;;;;;;;;;24.50;21.50;;;;;4.46;74.96;101240.44;146618;576;46016;-64
2023/12/10 03:59:21;;;;;;;;;27.50;21.25;;;;;4.45;75.36;101246.31;146619;573;46021;-64
2023/12/10 04:02:19;;;;;;;;;21.25;17.75;;;;;4.45;74.73;101255.69;146618;563;46010;-65
2023/12/10 04:05:17;;;;;;;;;21.00;19.50;;;;;4.43;74.44;101254.69;146619;585;45031;-66
2023/12/10 04:08:09;;;;;;;;;26.50;23.25;;;;;4.38;74.49;101255.16;146618;620;46012;-64
2023/12/10 04:11:04;;;;;;;;;29.25;23.25;;;;;4.32;73.81;101266.59;146619;637;46010;-64
2023/12/10 04:14:09;;;;;;;;;27.75;25.00;;;;;0.64;73.40;100628.13;146619;607;46012;-63
2023/12/10 04:17:02;;;;;;;;;29.50;24.00;;;;;4.21;74.47;101262.25;146621;578;46010;-64
2023/12/10 04:20:01;;;;;;;;;27.00;21.00;;;;;4.16;74.52;101255.03;146615;589;46017;-63
2023/12/10 04:23:10;;;;;;;;;22.25;20.50;;;;;4.11;74.39;101260.53;146617;624;46020;-64
2023/12/10 04:26:05;;;;;;;;;28.50;26.25;;;;;4.06;74.53;101249.00;146614;794;46017;-63
2023/12/10 04:29:08;;;;;;;;;24.75;21.00;;;;;4.02;74.60;101254.63;146622;598;46010;-64
2023/12/10 04:32:03;;;;;;;;;24.00;19.75;;;;;3.99;74.69;101246.66;146618;602;45016;-64
2023/12/10 04:35:01;;;;;;;;;26.50;20.00;;;;;4.02;74.79;101249.47;146622;601;46021;-64
2023/12/10 04:37:55;;;;;;;;;24.25;19.25;;;;;4.02;74.68;101249.47;146614;633;47012;-64
2023/12/10 04:40:55;;;;;;;;;23.00;21.75;;;;;4.01;74.53;101245.12;146621;610;46015;-64
2023/12/10 04:43:48;;;;;;;;;21.75;19.00;;;;;4.00;74.15;101254.50;146616;564;46914;-64
2023/12/10 04:46:41;;;;;;;;;22.25;21.75;;;;;3.97;74.91;101237.94;146623;596;46014;-64
2023/12/10 04:49:49;;;;;;;;;25.00;21.50;;;;;3.97;74.41;101243.06;146616;584;48012;-64
2023/12/10 04:52:50;;;;;;;;;26.75;20.00;;;;;3.93;74.37;101252.19;146621;572;46010;-62
2023/12/10 04:55:52;;;;;;;;;27.50;24.50;;;;;3.90;74.55;101251.91;146612;589;46012;-64
2023/12/10 04:58:44;;;;;;;;;29.25;23.25;;;;;3.83;75.35;101242.81;146621;611;46020;-64
2023/12/10 05:01:49;;;;;;;;;25.75;22.50;;;;;3.82;75.16;101247.78;146616;676;47012;-63
2023/12/10 05:04:46;;;;;;;;;29.00;23.75;;;;;3.80;74.91;101244.19;146622;586;46010;-64
2023/12/10 05:07:44;;;;;;;;;30.00;26.00;;;;;3.76;75.05;101242.12;146615;618;46029;-64
2023/12/10 05:10:38;;;;;;;;;30.75;28.75;;;;;3.74;75.46;101242.00;146615;610;47020;-65
2023/12/10 05:13:31;;;;;;;;;31.00;26.75;;;;;3.72;75.15;101240.06;146619;624;46012;-64
2023/12/10 05:16:36;;;;;;;;;34.50;26.50;;;;;3.64;75.90;101231.69;146620;585;46020;-65
2023/12/10 05:19:39;;;;;;;;;33.25;28.25;;;;;3.69;75.19;101245.81;146614;586;46017;-64
2023/12/10 05:22:31;;;;;;;;;35.25;30.00;;;;;3.64;75.75;101240.28;146622;587;46014;-65
2023/12/10 05:25:27;;;;;;;;;30.75;23.75;;;;;3.64;75.78;101247.09;146616;605;46017;-63
2023/12/10 05:28:27;;;;;;;;;31.75;27.50;;;;;3.63;75.14;101237.59;146619;601;46020;-63
2023/12/10 05:31:22;;;;;;;;;27.50;24.75;;;;;3.62;75.11;101228.12;146616;627;47012;-66
2023/12/10 05:34:16;;;;;;;;;30.50;24.50;;;;;3.63;75.33;101246.19;146613;674;46020;-65
2023/12/10 05:37:21;;;;;;;;;30.75;28.50;;;;;3.62;75.38;101241.84;146617;616;47012;-64
2023/12/10 05:40:20;;;;;;;;;27.50;22.50;;;;;3.63;75.19;101241.06;146619;645;46020;-64
2023/12/10 05:43:18;;;;;;;;;28.75;27.00;;;;;3.67;75.64;101247.34;146616;663;46016;-64
2023/12/10 05:46:24;;;;;;;;;30.00;26.50;;;;;3.73;75.34;101242.75;146619;578;46020;-66
2023/12/10 05:49:31;;;;;;;;;32.00;26.25;;;;;3.76;75.17;101243.03;146619;615;46014;-66
2023/12/10 05:52:26;;;;;;;;;25.50;21.75;;;;;3.76;75.50;101235.31;146621;569;46010;-65
2023/12/10 05:55:39;;;;;;;;;29.75;27.00;;;;;-0.32;75.30;100518.37;146616;594;47914;-64
2023/12/10 05:58:34;;;;;;;;;30.50;27.50;;;;;3.81;75.32;101246.87;146621;566;46010;-63
2023/12/10 06:01:30;;;;;;;;;33.25;28.75;;;;;3.77;76.02;101243.91;146617;573;47914;-64
2023/12/10 06:04:22;;;;;;;;;26.00;23.75;;;;;3.66;75.93;101232.75;146619;673;47014;-65
2023/12/10 06:07:17;;;;;;;;;28.50;24.25;;;;;3.74;75.99;101246.22;146617;586;47012;-66
2023/12/10 06:10:18;;;;;;;;;32.50;24.75;;;;;3.75;75.62;101237.78;146617;613;46021;-65
2023/12/10 06:13:10;;;;;;;;;27.25;25.25;;;;;3.81;76.08;101244.31;146615;691;46016;-65
2023/12/10 06:16:06;;;;;;;;;29.25;25.00;;;;;3.87;76.35;101236.25;146618;631;46010;-65
2023/12/10 06:19:04;;;;;;;;;26.50;22.25;;;;;3.91;76.55;101238.31;146617;589;46017;-66
2023/12/10 06:21:59;;;;;;;;;26.25;22.25;;;;;3.96;76.37;101233.56;146637;586;45020;-65
2023/12/10 06:25:02;;;;;;;;;;;;;;;;;;;;;
2023/12/10 06:28:00;;;;;;;;;23.25;20.00;;;;;4.04;76.48;101238.59;146634;636;45025;-65
2023/12/10 06:30:52;;;;;;;;;28.25;21.00;;;;;4.13;76.57;101246.19;146630;704;45016;-65
2023/12/10 06:33:51;;;;;;;;;29.75;24.25;;;;;4.43;78.75;101236.72;146634;572;46581;-66
2023/12/10 06:36:45;;;;;;;;;27.50;24.50;;;;;5.00;80.46;101245.75;146629;654;46914;-65
2023/12/10 06:39:37;;;;;;;;;29.25;24.00;;;;;5.49;79.93;101246.25;146636;619;45020;-64
2023/12/10 06:42:39;;;;;;;;;27.75;24.25;;;;;5.86;78.58;101252.62;146635;616;46037;-65
2023/12/10 06:45:32;;;;;;;;;27.00;22.25;;;;;6.19;77.50;101250.87;146635;612;46010;-64
2023/12/10 06:48:33;;;;;;;;;31.00;29.50;;;;;6.66;78.26;101241.59;146634;569;45017;-64
2023/12/10 06:51:28;;;;;;;;;38.50;33.00;;;;;7.42;78.95;101242.00;146633;666;46010;-64
2023/12/10 06:54:23;;;;;;;;;50.00;39.00;;;;;8.37;75.79;101239.19;146628;693;46013;-63
2023/12/10 06:57:19;;;;;;;;;63.50;47.50;;;;;9.27;71.41;101240.84;146636;564;45010;-65
2023/12/10 07:00:24;;;;;;;;;69.50;52.50;;;;;7.80;67.32;100831.66;146633;626;46014;-68
2023/12/10 07:03:24;;;;;;;;;59.00;46.00;;;;;10.68;62.38;101237.53;146634;591;46010;-65
2023/12/10 07:06:19;;;;;;;;;47.50;39.50;;;;;11.06;62.25;101233.69;146635;643;45012;-66
2023/12/10 07:09:12;;;;;;;;;57.25;45.75;;;;;11.47;59.80;101238.62;146635;625;46010;-68
2023/12/10 07:12:04;;;;;;;;;57.25;45.75;;;;;11.88;59.82;101237.41;146625;563;46913;-65
2023/12/10 07:15:01;;;;;;;;;50.00;40.50;;;;;12.32;57.13;101238.88;146635;624;46010;-66
2023/12/10 07:17:57;;;;;;;;;47.75;37.25;;;;;12.73;57.21;101242.72;146630;613;45017;-66
2023/12/10 07:20:57;;;;;;;;;45.25;37.75;;;;;13.25;56.36;101237.53;146623;651;47010;-66
2023/12/10 07:24:09;;;;;;;;;49.25;41.25;;;;;13.84;55.14;101247.28;146616;573;46016;-67
2023/12/10 07:27:04;;;;;;;;;60.75;45.25;;;;;14.35;51.43;101246.97;146620;587;46020;-67
2023/12/10 07:30:07;;;;;;;;;54.75;43.50;;;;;14.53;50.82;101237.37;146620;681;46016;-68
2023/12/10 07:33:05;;;;;;;;;53.75;42.75;;;;;14.71;49.33;101244.22;146615;580;46011;-67
2023/12/10 07:36:10;;;;;;;;;52.00;41.25;;;;;14.76;48.94;101234.84;146614;632;46016;-66
2023/12/10 07:39:06;;;;;;;;;52.25;39.75;;;;;14.68;48.00;101242.34;146621;618;47010;-66
2023/12/10 07:42:02;;;;;;;;;47.50;38.75;;;;;14.42;47.98;101238.56;146618;595;46014;-67
2023/12/10 07:45:05;;;;;;;;;;;;;;;;;;;;;
2023/12/10 07:47:57;;;;;;;;;56.50;45.25;;;;;13.87;48.98;101246.53;146617;579;46012;-67
2023/12/10 07:50:51;;;;;;;;;55.75;43.00;;;;;13.67;49.49;101250.81;146624;579;45014;-66
2023/12/10 07:53:54;;;;;;;;;51.50;41.00;;;;;13.51;50.34;101248.31;146618;569;46914;-67
2023/12/10 07:56:53;;;;;;;;;53.25;42.50;;;;;13.35;51.07;101246.69;146621;583;46020;-67
2023/12/10 08:00:05;;;;;;;;;51.00;41.25;;;;;13.21;51.75;101255.50;146620;586;46012;-66
2023/12/10 08:03:06;;;;;;;;;46.75;37.00;;;;;13.10;51.54;101249.78;146618;765;46021;-67
2023/12/10 08:06:01;;;;;;;;;57.75;43.50;;;;;13.05;51.08;101246.03;146617;586;46016;-66
2023/12/10 08:08:59;;;;;;;;;54.00;42.00;;;;;12.94;51.50;101254.22;146618;567;46021;-66
2023/12/10 08:11:56;;;;;;;;;45.50;38.00;;;;;12.91;52.39;101250.56;146616;652;46012;-66
2023/12/10 08:14:52;;;;;;;;;50.75;40.50;;;;;12.85;51.73;101237.25;146614;581;46010;-66
2023/12/10 08:17:48;;;;;;;;;50.50;39.75;;;;;12.87;52.86;101248.62;146615;614;48003;-68
2023/12/10 08:20:43;;;;;;;;;50.00;40.75;;;;;12.89;53.37;101246.97;146617;569;46020;-67
2023/12/10 08:23:40;;;;;;;;;51.50;39.75;;;;;12.99;52.46;101249.25;146618;587;46013;-66
2023/12/10 08:26:34;;;;;;;;;54.00;42.00;;;;;13.03;52.96;101245.09;146620;577;46032;-66
2023/12/10 08:29:26;;;;;;;;;55.00;44.00;;;;;13.11;53.15;101246.34;146611;636;46016;-68
2023/12/10 08:32:21;;;;;;;;;51.25;41.00;;;;;13.21;52.83;101242.47;146622;601;45021;-67
2023/12/10 08:35:15;;;;;;;;;55.25;42.75;;;;;13.31;52.08;101239.56;146617;596;46016;-66
2023/12/10 08:38:15;;;;;;;;;60.00;46.50;;;;;13.36;51.87;101238.97;146622;650;45020;-66
2023/12/10 08:41:18;;;;;;;;;;;;;;;;;;;;;
2023/12/10 08:44:11;;;;;;;;;52.50;42.00;;;;;13.43;53.16;101241.81;146614;605;47020;-66
2023/12/10 08:47:06;;;;;;;;;50.25;40.00;;;;;13.46;52.07;101229.87;146615;610;47016;-66
2023/12/10 08:50:13;;;;;;;;;54.75;44.75;;;;;13.45;53.30;101229.78;146619;593;46020;-67
2023/12/10 08:53:06;;;;;;;;;48.75;39.00;;;;;13.43;52.97;101221.91;146615;594;46017;-65
2023/12/10 08:56:06;;;;;;;;;49.25;38.75;;;;;13.51;52.79;101217.94;146616;634;46010;-67
2023/12/10 08:59:04;;;;;;;;;50.00;40.25;;;;;13.51;51.71;101217.03;146617;594;46013;-67
2023/12/10 09:01:56;;;;;;;;;49.00;40.25;;;;;13.41;51.83;101202.69;146618;574;46020;-66
2023/12/10 09:04:57;;;;;;;;;53.50;42.50;;;;;13.35;53.66;101195.47;146616;577;47014;-66
2023/12/10 09:07:54;;;;;;;;;55.00;43.25;;;;;13.44;53.87;101188.94;146621;600;46014;-65
2023/12/10 09:10:53;;;;;;;;;51.25;41.00;;;;;13.59;52.98;101177.50;146620;770;46021;-66
2023/12/10 09:13:46;;;;;;;;;56.50;40.50;;;;;13.83;53.05;101179.44;146620;588;47010;-67
2023/12/10 09:16:41;;;;;;;;;42.75;35.25;;;;;14.01;51.50;101172.44;146618;640;46014;-66
2023/12/10 09:19:33;;;;;;;;;42.50;35.50;;;;;14.04;51.63;101166.47;146618;580;46020;-68
2023/12/10 09:22:26;;;;;;;;;50.75;37.25;;;;;14.04;52.98;101163.88;146614;564;46017;-67
2023/12/10 09:25:37;;;;;;;;;45.75;37.50;;;;;14.08;53.68;101152.72;146617;575;46020;-67
2023/12/10 09:28:29;;;;;;;;;47.50;37.25;;;;;14.11;52.22;101152.88;146617;591;46016;-66
2023/12/10 09:31:29;;;;;;;;;42.25;34.25;;;;;14.19;53.28;101141.06;146622;569;45021;-67
2023/12/10 09:34:27;;;;;;;;;48.75;40.25;;;;;14.36;52.69;101133.06;146615;596;46016;-66
2023/12/10 09:37:19;;;;;;;;;44.75;36.00;;;;;14.53;51.67;101125.16;146618;701;47047;-66
2023/12/10 09:40:18;;;;;;;;;48.00;38.00;;;;;14.64;50.35;101124.69;146617;588;46016;-66
2023/12/10 09:43:15;;;;;;;;;40.50;33.50;;;;;14.70;50.12;101118.03;146620;588;46020;-67
2023/12/10 09:46:12;;;;;;;;;38.00;31.75;;;;;14.82;50.87;101114.13;146616;707;46016;-64
2023/12/10 09:49:09;;;;;;;;;33.00;28.25;;;;;14.95;50.61;101106.84;146617;611;46020;-64
2023/12/10 09:52:06;;;;;;;;;38.25;32.00;;;;;15.12;51.46;101102.28;146616;609;46017;-64
2023/12/10 09:55:01;;;;;;;;;33.25;27.00;;;;;15.35;50.98;101110.09;146619;670;46020;-64
2023/12/10 09:57:53;;;;;;;;;114.67;97.00;;;;;15.60;50.37;101104.94;146619;579;47016;-64
2023/12/10 10:00:48;;;;;;;;;486.75;358.00;;;;;15.80;48.53;101095.28;146627;578;46014;-64
2023/12/10 10:03:43;;;;;;;;;294.50;228.50;;;;;15.81;48.91;101086.59;146621;618;47012;-64
2023/12/10 10:06:43;;;;;;;;;349.00;262.00;;;;;15.79;50.38;101083.00;146619;940;46020;-64
2023/12/10 10:09:43;;;;;;;;;121.33;92.00;;;;;15.78;49.34;101080.34;146621;565;47012;-63
2023/12/10 10:12:38;;;;;;;;;188.25;143.75;;;;;15.69;49.82;101079.19;146630;573;46010;-63
2023/12/10 10:15:37;;;;;;;;;50.00;40.00;;;;;15.61;47.76;101085.84;146619;617;46016;-63
2023/12/10 10:18:32;;;;;;;;;46.00;37.00;;;;;15.41;48.54;101087.69;146620;586;46010;-63
2023/12/10 10:21:28;;;;;;;;;113.67;88.00;;;;;15.18;50.22;101081.63;146617;655;46016;-64
2023/12/10 10:24:21;;;;;;;;;46.75;38.00;;;;;15.02;50.03;101079.25;146623;578;47020;-64
2023/12/10 10:27:21;;;;;;;;;54.50;42.25;;;;;15.01;50.94;101072.22;146616;662;46016;-64
2023/12/10 10:30:17;;;;;;;;;48.75;37.75;;;;;15.07;50.71;101066.38;146621;573;46010;-64
2023/12/10 10:33:12;;;;;;;;;152.50;120.25;;;;;15.18;50.55;101063.34;146622;628;46014;-64
2023/12/10 10:36:14;;;;;;;;;78.50;66.00;;;;;15.45;51.75;101067.78;146618;564;47010;-62
2023/12/10 10:39:21;;;;;;;;;78.75;59.50;;;;;15.68;50.49;101046.03;146616;569;46016;-64
2023/12/10 10:42:16;;;;;;;;;103.67;86.00;;;;;15.95;50.28;101040.00;146623;572;46010;-64
2023/12/10 10:45:16;;;;;;;;;50.00;39.75;;;;;16.15;47.83;101028.47;146620;604;46013;-64
2023/12/10 10:48:15;;;;;;;;;66.00;49.25;;;;;16.24;47.39;101024.41;146622;569;46010;-64
2023/12/10 10:51:39;;;;;;;;;57.50;43.75;;;;;13.13;50.61;100485.38;146615;569;46017;-64
2023/12/10 10:54:33;;;;;;;;;60.25;45.25;;;;;16.13;47.10;100998.75;146619;674;47010;-63
2023/12/10 10:57:51;;;;;;;;;78.00;59.50;;;;;12.83;48.98;100471.22;146620;589;46012;-64
2023/12/10 11:00:57;;;;;;;;;37.50;31.75;;;;;15.69;49.33;101000.75;146619;574;46020;-64
2023/12/10 11:03:55;;;;;;;;;49.00;40.00;;;;;15.67;50.63;100997.22;146616;593;47012;-64
2023/12/10 11:06:51;;;;;;;;;117.67;92.33;;;;;15.87;51.23;100994.41;146621;595;46020;-64
2023/12/10 11:10:05;;;;;;;;;54.00;42.00;;;;;16.12;51.74;100988.25;146620;640;47012;-64
2023/12/10 11:13:06;;;;;;;;;42.25;32.00;;;;;16.19;49.51;100990.22;146620;583;46010;-64
2023/12/10 11:16:08;;;;;;;;;60.25;45.75;;;;;16.05;51.11;100994.13;146616;647;46012;-63
2023/12/10 11:19:22;;;;;;;;;56.50;45.50;;;;;14.12;52.01;100684.41;146616;566;47020;-63
2023/12/10 11:22:22;;;;;;;;;74.25;61.00;;;;;15.71;50.86;100977.28;146616;586;46017;-63
2023/12/10 11:25:21;;;;;;;;;78.75;62.25;;;;;15.59;51.25;100971.59;146622;634;46029;-63
2023/12/10 11:28:24;;;;;;;;;55.00;43.75;;;;;15.37;51.98;100968.25;146618;593;46016;-63
2023/12/10 11:31:31;;;;;;;;;58.00;44.00;;;;;11.92;53.34;100404.38;146618;624;46020;-64
2023/12/10 11:34:28;;;;;;;;;63.75;48.75;;;;;14.94;51.79;100950.13;146615;575;46016;-65
2023/12/10 11:37:21;;;;;;;;;20.00;16.50;;;;;14.79;53.04;100953.03;146619;628;46020;-64
2023/12/10 11:40:18;;;;;;;;;27.25;22.75;;;;;14.62;52.67;100944.56;146619;616;46012;-63
2023/12/10 11:43:12;;;;;;;;;38.50;32.50;;;;;14.48;52.63;100943.09;146620;650;46010;-64
2023/12/10 11:46:08;;;;;;;;;29.75;25.50;;;;;14.33;53.57;100939.09;146615;585;46016;-64
2023/12/10 11:49:03;;;;;;;;;39.00;33.25;;;;;14.21;54.19;100936.00;146619;609;46020;-64
2023/12/10 11:51:56;;;;;;;;;60.00;45.25;;;;;14.11;55.96;100933.81;146616;565;46916;-66
2023/12/10 11:54:58;;;;;;;;;45.00;37.00;;;;;14.07;56.48;100925.00;146622;571;46012;-65
2023/12/10 11:57:55;;;;;;;;;54.25;42.25;;;;;14.13;56.50;100920.88;146616;566;47012;-65
2023/12/10 12:01:05;;;;;;;;;46.25;37.50;;;;;14.18;56.71;100919.34;146618;580;47010;-65
2023/12/10 12:04:08;;;;;;;;;28.50;24.25;;;;;14.18;55.63;100920.22;146618;582;46016;-66
2023/12/10 12:07:03;;;;;;;;;38.00;33.50;;;;;14.20;54.50;100920.28;146621;612;45025;-66
2023/12/10 12:10:04;;;;;;;;;28.75;25.25;;;;;14.16;55.08;100923.59;146617;570;46014;-69
2023/12/10 12:13:02;;;;;;;;;44.75;35.25;;;;;14.06;55.09;100922.34;146620;566;46021;-75
2023/12/10 12:16:05;;;;;;;;;43.75;35.00;;;;;13.92;54.91;100913.94;146614;577;45025;-67
2023/12/10 12:19:01;;;;;;;;;49.25;39.25;;;;;13.73;56.01;100914.03;146617;603;46020;-68
2023/12/10 12:21:53;;;;;;;;;42.50;35.00;;;;;13.58;56.42;100904.75;146632;569;46916;-67
2023/12/10 12:24:59;;;;;;;;;47.00;39.25;;;;;13.48;56.71;100904.28;146637;629;45010;-68
2023/12/10 12:28:00;;;;;;;;;45.75;36.25;;;;;13.36;56.93;100896.84;146629;646;46014;-69
2023/12/10 12:31:03;;;;;;;;;34.75;30.25;;;;;13.22;56.59;100892.75;146637;673;45020;-67
2023/12/10 12:33:58;;;;;;;;;43.75;35.75;;;;;13.11;57.51;100893.12;146632;634;46012;-67
2023/12/10 12:36:50;;;;;;;;;44.75;37.00;;;;;13.01;58.01;100892.69;146636;565;45020;-67
2023/12/10 12:39:46;;;;;;;;;55.75;41.00;;;;;12.94;58.72;100887.22;146632;578;45012;-67
2023/12/10 12:42:48;;;;;;;;;51.25;39.25;;;;;12.88;58.72;100891.25;146632;578;46020;-69
2023/12/10 12:45:49;;;;;;;;;51.50;39.75;;;;;12.87;58.04;100887.78;146634;582;45036;-67
2023/12/10 12:48:44;;;;;;;;;49.00;39.50;;;;;12.88;58.64;100880.84;146637;573;45010;-68
2023/12/10 12:51:41;;;;;;;;;44.00;37.00;;;;;12.88;58.27;100881.72;146633;564;45017;-68
2023/12/10 12:54:37;;;;;;;;;51.00;38.50;;;;;12.90;57.92;100890.50;146635;607;46010;-67
2023/12/10 12:57:32;;;;;;;;;49.00;38.25;;;;;12.87;58.71;100882.56;146631;600;46012;-68
2023/12/10 13:00:24;;;;;;;;;46.50;37.75;;;;;12.84;58.17;100877.22;146630;572;47916;-68
2023/12/10 13:03:23;;;;;;;;;46.75;38.25;;;;;12.84;57.93;100877.22;146627;601;47016;-69
2023/12/10 13:06:27;;;;;;;;;48.25;40.00;;;;;12.81;57.65;100877.09;146634;591;45020;-68
2023/12/10 13:09:40;;;;;;;;;51.75;41.75;;;;;12.78;58.07;100878.66;146632;578;45016;-67
2023/12/10 13:12:41;;;;;;;;;52.50;42.00;;;;;12.77;58.42;100875.16;146632;569;46008;-67
2023/12/10 13:15:44;;;;;;;;;51.25;41.00;;;;;12.78;57.92;100870.87;146631;588;45016;-67
2023/12/10 13:18:51;;;;;;;;;;;;;;;;;;;;;
2023/12/10 13:22:10;;;;;;;;;50.75;39.25;;;;;12.86;58.34;100872.97;146616;626;46016;-67
2023/12/10 13:25:20;;;;;;;;;;;;;;;;;;;;;
2023/12/10 13:28:18;;;;;;;;;48.75;39.50;;;;;12.95;57.25;100864.66;146619;622;46016;-67
2023/12/10 13:31:13;;;;;;;;;49.50;38.25;;;;;12.94;57.57;100860.28;146615;569;47010;-68
2023/12/10 13:34:14;;;;;;;;;51.50;42.50;;;;;12.91;56.87;100854.97;146615;622;46025;-68
2023/12/10 13:37:15;;;;;;;;;45.75;36.75;;;;;12.91;57.83;100837.63;146620;632;46020;-66
2023/12/10 13:40:11;;;;;;;;;48.75;38.75;;;;;12.90;57.11;100838.47;146616;604;46913;-68
2023/12/10 13:43:10;;;;;;;;;50.75;41.00;;;;;12.91;57.94;100836.75;146618;569;46020;-67
2023/12/10 13:46:14;;;;;;;;;53.25;41.50;;;;;12.89;58.09;100834.06;146617;600;46012;-67